Time;durP1;ratioP1;P1;durP2;ratioP2;P2;SDS_P1;SDS_P2;PMS_P1;PMS_P2;Temp;Humidity;BMP_temperature;BMP_pressure;BME280_temperature;BME280_humidity;BME280_pressure;Samples;Min_cycle;Max_cycle;Signal;HPM_P1;HPM_P2
2022/05/14 00:01:14;;;;;;;2.55;1.70;;;18.80;53.10;;;;;;4934990;29;20492;-75
2022/05/14 00:03:40;;;;;;;3.78;1.65;;;18.80;53.20;;;;;;4936838;29;20035;-75
2022/05/14 00:06:10;;;;;;;2.50;1.70;;;18.70;53.20;;;;;;4951134;29;20051;-75
2022/05/14 00:08:37;;;;;;;3.42;1.83;;;18.70;53.20;;;;;;4951383;29;20067;-75
2022/05/14 00:13:47;;;;;;;;;;;18.60;53.20;;;;;;4922476;29;20425;-77
2022/05/14 00:16:14;;;;;;;2.47;1.60;;;18.60;53.20;;;;;;4951281;29;19915;-75
2022/05/14 00:18:41;;;;;;;2.83;1.73;;;18.60;53.30;;;;;;4935432;29;20063;-75
2022/05/14 00:21:08;;;;;;;2.83;1.50;;;18.50;53.30;;;;;;4934953;29;20047;-75
2022/05/14 00:23:33;;;;;;;3.08;1.83;;;18.50;53.40;;;;;;4934999;29;20465;-75
2022/05/14 00:25:59;;;;;;;2.53;1.70;;;18.50;53.50;;;;;;4936764;29;20092;-75
2022/05/14 00:28:25;;;;;;;2.47;1.63;;;18.40;53.50;;;;;;4919062;29;20059;-75
2022/05/14 00:30:52;;;;;;;2.67;1.50;;;18.40;53.50;;;;;;4936634;29;20036;-75
2022/05/14 00:33:17;;;;;;;2.88;1.80;;;18.40;53.60;;;;;;4919349;29;20040;-74
2022/05/14 00:35:43;;;;;;;2.78;1.75;;;18.40;53.60;;;;;;4934961;29;20051;-74
2022/05/14 00:38:11;;;;;;;3.13;1.60;;;18.30;53.60;;;;;;4919847;29;20043;-75
2022/05/14 00:40:47;;;;;;;3.05;1.80;;;18.30;53.70;;;;;;4950663;29;20040;-75
2022/05/14 00:43:15;;;;;;;3.03;1.73;;;18.30;53.70;;;;;;4951122;28;20036;-74
2022/05/14 00:45:50;;;;;;;2.85;1.80;;;18.20;53.70;;;;;;4918777;29;20094;-75
2022/05/14 00:48:17;;;;;;;3.50;1.77;;;18.20;53.80;;;;;;4936106;29;20028;-75
2022/05/14 00:50:44;;;;;;;3.50;1.60;;;18.20;53.80;;;;;;4935762;29;20090;-75
2022/05/14 00:53:27;;;;;;;3.15;1.73;;;18.20;53.80;;;;;;4935904;29;20437;-75
2022/05/14 00:55:56;;;;;;;2.25;1.40;;;18.20;53.90;;;;;;4950845;29;20043;-75
2022/05/14 00:58:43;;;;;;;2.75;1.50;;;18.10;53.80;;;;;;4918839;29;20032;-75
2022/05/14 01:01:09;;;;;;;2.42;1.55;;;18.10;54.00;;;;;;4919006;29;20035;-75
2022/05/14 01:03:35;;;;;;;2.58;1.40;;;18.10;53.90;;;;;;4887525;29;20440;-75
2022/05/14 01:06:04;;;;;;;2.08;1.63;;;18.00;53.90;;;;;;4918982;29;20503;-75
2022/05/14 01:08:32;;;;;;;2.35;1.50;;;18.00;54.00;;;;;;4918501;29;20083;-75
2022/05/14 01:10:58;;;;;;;1.40;1.25;;;18.00;54.00;;;;;;4950712;29;20035;-75
2022/05/14 01:13:25;;;;;;;2.28;1.60;;;18.00;54.00;;;;;;4934497;29;20481;-75
2022/05/14 01:15:54;;;;;;;2.08;1.30;;;17.90;54.00;;;;;;4950694;29;20032;-75
2022/05/14 01:18:26;;;;;;;2.58;1.40;;;17.90;54.00;;;;;;4934496;29;20031;-77
2022/05/14 01:20:56;;;;;;;3.22;1.63;;;17.80;54.00;;;;;;4950295;29;20039;-75
2022/05/14 01:26:27;;;;;;;2.53;1.60;;;17.80;54.10;;;;;;4918898;29;20032;-75
2022/05/14 01:26:30;;;;;;;1.70;1.45;;;17.80;54.10;;;;;;4935105;29;20091;-74
2022/05/14 01:29:13;;;;;;;3.03;1.50;;;17.70;54.00;;;;;;4921585;29;20126;-74
2022/05/14 01:31:40;;;;;;;2.72;1.90;;;17.70;54.10;;;;;;4951031;29;20040;-75
2022/05/14 01:34:12;;;;;;;2.67;1.45;;;17.70;54.20;;;;;;4918300;29;20046;-75
2022/05/14 01:36:39;;;;;;;2.28;1.48;;;17.70;54.20;;;;;;4934619;29;20126;-75
2022/05/14 01:39:06;;;;;;;2.13;1.40;;;17.60;54.20;;;;;;4934955;29;20038;-76
2022/05/14 01:41:32;;;;;;;2.53;1.55;;;17.60;54.20;;;;;;4918549;29;20506;-75
2022/05/14 01:43:57;;;;;;;2.78;1.60;;;17.50;54.20;;;;;;4935416;29;20039;-75
2022/05/14 01:46:23;;;;;;;1.92;1.40;;;17.50;54.30;;;;;;4919202;29;20293;-75
2022/05/14 01:48:50;;;;;;;1.95;1.40;;;17.50;54.30;;;;;;4918389;29;20047;-75
2022/05/14 01:51:17;;;;;;;2.45;1.60;;;17.50;54.40;;;;;;4935150;29;20544;-74
2022/05/14 01:53:44;;;;;;;2.65;1.70;;;17.50;54.40;;;;;;4934152;29;20027;-75
2022/05/14 01:56:10;;;;;;;2.13;1.40;;;17.40;54.40;;;;;;4952324;28;20038;-75
2022/05/14 01:58:36;;;;;;;2.53;1.65;;;17.40;54.40;;;;;;4938565;29;20059;-75
2022/05/14 02:01:21;;;;;;;1.92;1.60;;;17.40;54.40;;;;;;4937061;29;20138;-75
2022/05/14 02:03:56;;;;;;;1.75;1.40;;;17.30;54.50;;;;;;4937554;29;20107;-74
2022/05/14 02:06:26;;;;;;;2.40;1.60;;;17.40;54.50;;;;;;4937733;29;20039;-75
2022/05/14 02:08:51;;;;;;;2.30;1.58;;;17.30;54.50;;;;;;4953352;29;20024;-75
2022/05/14 02:11:18;;;;;;;3.10;1.92;;;17.30;54.50;;;;;;4921863;29;20039;-74
2022/05/14 02:13:49;;;;;;;1.23;1.13;;;17.30;54.60;;;;;;4953575;29;20087;-74
2022/05/14 02:16:15;;;;;;;2.47;1.45;;;17.30;54.60;;;;;;4921321;29;20027;-74
2022/05/14 02:18:42;;;;;;;2.40;1.42;;;17.20;54.60;;;;;;4937093;29;20027;-75
2022/05/14 02:21:09;;;;;;;1.98;1.35;;;17.20;54.60;;;;;;4936996;29;20044;-75
2022/05/14 02:23:38;;;;;;;1.85;1.33;;;17.20;54.60;;;;;;4921252;29;20039;-74
2022/05/14 02:26:10;;;;;;;1.48;1.30;;;17.10;54.60;;;;;;4952471;29;20059;-73
2022/05/14 02:28:38;;;;;;;1.88;1.40;;;17.20;54.80;;;;;;4953236;29;20391;-73
2022/05/14 02:31:03;;;;;;;2.42;1.30;;;17.10;54.70;;;;;;4936866;29;20062;-73
2022/05/14 02:33:29;;;;;;;2.65;1.52;;;17.10;54.70;;;;;;4937051;29;20067;-73
2022/05/14 02:35:56;;;;;;;2.40;1.40;;;17.10;54.70;;;;;;4921367;29;20028;-73
2022/05/14 02:38:22;;;;;;;3.08;1.88;;;17.00;54.70;;;;;;4952807;29;20457;-73
2022/05/14 02:40:48;;;;;;;2.63;1.40;;;17.00;54.70;;;;;;4920741;29;20036;-75
2022/05/14 02:43:14;;;;;;;2.38;1.48;;;17.00;54.80;;;;;;4920872;29;20086;-74
2022/05/14 02:45:40;;;;;;;1.48;1.38;;;17.00;54.80;;;;;;4936655;29;20468;-75
2022/05/14 02:48:10;;;;;;;2.45;1.40;;;17.00;54.80;;;;;;4921587;29;20094;-74
2022/05/14 02:50:37;;;;;;;3.72;1.85;;;16.90;54.80;;;;;;4952332;29;20039;-74
2022/05/14 02:53:03;;;;;;;1.95;1.75;;;16.90;54.80;;;;;;4920848;29;20023;-74
2022/05/14 02:55:30;;;;;;;1.63;1.23;;;16.90;54.90;;;;;;4936510;29;20027;-74
2022/05/14 02:57:56;;;;;;;2.00;1.40;;;16.90;54.90;;;;;;4920812;29;20439;-74
2022/05/14 03:00:23;;;;;;;1.73;1.30;;;16.90;54.90;;;;;;4952544;29;20044;-74
2022/05/14 03:02:49;;;;;;;2.35;1.67;;;16.80;54.90;;;;;;4921399;29;20358;-74
2022/05/14 03:05:17;;;;;;;3.45;1.60;;;16.80;54.90;;;;;;4936191;29;20032;-73
2022/05/14 03:07:44;;;;;;;1.80;1.50;;;16.80;55.00;;;;;;4936781;29;20453;-75
2022/05/14 03:10:11;;;;;;;1.83;1.38;;;16.80;55.00;;;;;;4936377;29;20039;-74
2022/05/14 03:12:37;;;;;;;3.58;1.67;;;16.80;55.00;;;;;;4937557;29;20055;-74
2022/05/14 03:15:05;;;;;;;1.52;1.30;;;16.70;55.00;;;;;;4920395;29;20035;-77
2022/05/14 03:17:34;;;;;;;2.28;1.50;;;16.70;55.00;;;;;;4920659;29;20071;-74
2022/05/14 03:20:06;;;;;;;2.47;1.73;;;16.70;55.10;;;;;;4936634;29;20032;-74
2022/05/14 03:22:33;;;;;;;1.60;1.35;;;16.70;55.10;;;;;;4920425;29;20032;-75
2022/05/14 03:24:59;;;;;;;2.70;1.55;;;16.60;55.10;;;;;;4935867;29;20063;-75
2022/05/14 03:27:25;;;;;;;1.95;1.50;;;16.60;55.10;;;;;;4951982;29;20032;-73
2022/05/14 03:29:51;;;;;;;2.25;1.48;;;16.60;55.20;;;;;;4936113;29;20113;-74
2022/05/14 03:32:17;;;;;;;2.90;1.60;;;16.60;55.20;;;;;;4905073;29;20031;-75
2022/05/14 03:34:42;;;;;;;1.58;1.33;;;16.50;55.20;;;;;;4920121;29;20055;-74
2022/05/14 03:37:08;;;;;;;2.10;1.40;;;16.50;55.20;;;;;;4935631;29;20495;-74
2022/05/14 03:39:35;;;;;;;1.65;1.23;;;16.50;55.20;;;;;;4920039;29;20101;-75
2022/05/14 03:42:01;;;;;;;3.25;1.75;;;16.50;55.30;;;;;;4936344;29;20413;-74
2022/05/14 03:44:27;;;;;;;2.20;1.42;;;16.40;55.20;;;;;;4920094;29;20504;-74
2022/05/14 03:46:53;;;;;;;1.52;1.30;;;16.40;55.30;;;;;;4919872;29;20031;-74
2022/05/14 03:49:19;;;;;;;4.40;1.48;;;16.40;55.30;;;;;;4935788;29;20439;-73
2022/05/14 03:51:45;;;;;;;2.45;1.30;;;16.40;55.30;;;;;;4935543;29;20432;-73
2022/05/14 03:54:10;;;;;;;2.08;1.50;;;16.40;55.40;;;;;;4919885;29;20036;-74
2022/05/14 03:56:39;;;;;;;1.98;1.35;;;16.30;55.30;;;;;;4919685;29;20055;-74
2022/05/14 03:59:08;;;;;;;2.30;1.70;;;16.30;55.40;;;;;;4936661;29;20494;-76
2022/05/14 04:01:35;;;;;;;3.15;1.80;;;16.30;55.40;;;;;;4935313;29;20404;-74
2022/05/14 04:04:02;;;;;;;1.38;1.15;;;16.30;55.50;;;;;;4919693;29;20478;-74
2022/05/14 04:06:28;;;;;;;1.88;1.60;;;16.30;55.50;;;;;;4919735;29;20043;-74
2022/05/14 04:08:54;;;;;;;3.35;1.90;;;16.20;55.50;;;;;;4935188;29;20043;-74
2022/05/14 04:11:20;;;;;;;2.17;1.52;;;16.20;55.50;;;;;;4951241;29;20036;-75
2022/05/14 04:13:47;;;;;;;2.17;1.58;;;16.20;55.50;;;;;;4935887;29;20032;-75
2022/05/14 04:16:12;;;;;;;1.45;1.35;;;16.20;55.60;;;;;;4919246;29;20388;-74
2022/05/14 04:18:38;;;;;;;1.65;1.40;;;16.10;55.50;;;;;;4919554;29;20030;-74
2022/05/14 04:21:05;;;;;;;2.30;1.50;;;16.10;55.60;;;;;;4935026;29;20199;-74
2022/05/14 04:23:32;;;;;;;2.25;1.50;;;16.10;55.70;;;;;;4935020;29;20495;-73
2022/05/14 04:25:59;;;;;;;1.50;1.40;;;16.10;55.70;;;;;;4950799;29;20088;-73
2022/05/14 04:28:26;;;;;;;3.13;1.77;;;16.00;55.70;;;;;;4918841;29;20039;-73
2022/05/14 04:30:52;;;;;;;1.73;1.35;;;16.10;55.70;;;;;;4919083;29;20118;-74
2022/05/14 04:33:20;;;;;;;3.40;2.00;;;16.00;55.70;;;;;;4934792;29;20034;-72
2022/05/14 04:35:46;;;;;;;1.95;1.50;;;16.00;55.70;;;;;;4919328;29;20047;-73
2022/05/14 04:38:13;;;;;;;3.00;2.10;;;16.00;55.80;;;;;;4934937;29;20027;-73
2022/05/14 04:40:40;;;;;;;2.03;1.60;;;16.00;55.80;;;;;;4934826;29;20441;-73
2022/05/14 04:43:08;;;;;;;1.95;1.45;;;15.90;55.80;;;;;;4918979;29;20040;-73
2022/05/14 04:45:35;;;;;;;2.72;1.55;;;15.90;55.90;;;;;;4919143;29;20126;-73
2022/05/14 04:48:01;;;;;;;2.25;1.50;;;15.90;55.90;;;;;;4919591;29;20540;-73
2022/05/14 04:50:27;;;;;;;2.22;1.50;;;15.90;55.90;;;;;;4935019;29;20067;-73
2022/05/14 04:52:52;;;;;;;2.10;1.60;;;15.90;56.00;;;;;;4918785;29;20027;-73
2022/05/14 04:55:18;;;;;;;2.40;1.70;;;15.80;55.90;;;;;;4919444;29;20460;-73
2022/05/14 04:57:45;;;;;;;2.28;1.77;;;15.90;56.00;;;;;;4934246;29;20388;-73
2022/05/14 05:00:15;;;;;;;2.50;1.60;;;15.90;56.10;;;;;;4950575;29;20031;-73
2022/05/14 05:05:28;;;;;;;2.17;1.52;;;15.80;56.10;;;;;;4921124;29;20039;-73
2022/05/14 05:07:55;;;;;;;1.95;1.58;;;15.80;56.10;;;;;;4935905;29;20028;-73
2022/05/14 05:10:21;;;;;;;1.98;1.60;;;15.80;56.20;;;;;;4951232;29;20441;-74
2022/05/14 05:12:48;;;;;;;3.70;1.83;;;15.80;56.20;;;;;;4919049;29;20128;-73
2022/05/14 05:15:14;;;;;;;2.35;1.80;;;15.80;56.20;;;;;;4950683;29;20024;-73
2022/05/14 05:17:40;;;;;;;3.35;1.85;;;15.70;56.20;;;;;;4935418;29;20110;-73
2022/05/14 05:20:06;;;;;;;2.22;1.73;;;15.70;56.20;;;;;;4918727;29;20464;-73
2022/05/14 05:22:32;;;;;;;1.92;1.60;;;15.70;56.20;;;;;;4935547;29;20054;-73
2022/05/14 05:24:58;;;;;;;2.15;1.67;;;15.70;56.30;;;;;;4950165;29;20043;-73
2022/05/14 05:27:24;;;;;;;2.22;1.63;;;15.70;56.30;;;;;;4934223;29;20604;-74
2022/05/14 05:29:50;;;;;;;3.63;2.03;;;15.60;56.30;;;;;;4936154;29;20055;-73
2022/05/14 05:32:16;;;;;;;2.33;1.70;;;15.70;56.40;;;;;;4939181;29;20072;-74
2022/05/14 05:34:42;;;;;;;2.22;1.75;;;15.60;56.30;;;;;;4953889;29;20028;-73
2022/05/14 05:37:07;;;;;;;1.75;1.50;;;15.70;56.40;;;;;;4922328;29;20036;-73
2022/05/14 05:39:33;;;;;;;2.13;1.67;;;15.70;56.40;;;;;;4938243;29;20023;-73
2022/05/14 05:41:59;;;;;;;2.45;1.65;;;15.70;56.50;;;;;;4938444;29;20063;-74
2022/05/14 05:44:28;;;;;;;3.50;1.88;;;15.60;56.50;;;;;;4937871;29;20096;-73
2022/05/14 05:46:54;;;;;;;2.40;1.73;;;15.70;56.60;;;;;;4922689;29;20091;-74
2022/05/14 05:49:21;;;;;;;2.95;1.83;;;15.60;56.50;;;;;;4937885;29;20083;-73
2022/05/14 05:51:47;;;;;;;2.13;1.65;;;15.60;56.50;;;;;;4938977;29;20043;-73
2022/05/14 05:56:57;;;;;;;2.47;1.80;;;15.60;56.60;;;;;;4938875;29;20051;-73
2022/05/14 05:59:25;;;;;;;3.05;1.98;;;15.60;56.60;;;;;;4937866;29;20023;-74
2022/05/14 06:01:52;;;;;;;2.25;1.80;;;15.60;56.70;;;;;;4922586;29;20099;-74
2022/05/14 06:04:19;;;;;;;2.42;1.73;;;15.60;56.70;;;;;;4937588;29;20028;-74
2022/05/14 06:06:45;;;;;;;3.60;2.15;;;15.60;56.70;;;;;;4921676;29;20062;-74
2022/05/14 06:09:16;;;;;;;3.35;2.00;;;15.60;56.70;;;;;;4921754;29;20365;-74
2022/05/14 06:11:42;;;;;;;2.35;1.70;;;15.60;56.80;;;;;;4938960;29;20035;-74
2022/05/14 06:14:09;;;;;;;2.10;1.90;;;15.60;56.80;;;;;;4939484;29;20115;-74
2022/05/14 06:16:35;;;;;;;2.20;1.85;;;15.60;56.80;;;;;;4937399;29;20047;-75
2022/05/14 06:19:01;;;;;;;2.70;1.73;;;15.60;56.80;;;;;;4937255;29;20028;-75
2022/05/14 06:21:27;;;;;;;2.45;1.85;;;15.60;56.80;;;;;;4921433;29;20051;-74
2022/05/14 06:23:54;;;;;;;3.28;1.80;;;15.60;56.90;;;;;;4937188;29;20114;-74
2022/05/14 06:26:20;;;;;;;1.92;1.80;;;15.60;56.90;;;;;;4921342;29;20055;-74
2022/05/14 06:28:46;;;;;;;2.30;1.70;;;15.60;56.90;;;;;;4936995;29;20501;-73
2022/05/14 06:31:12;;;;;;;4.40;2.35;;;15.60;56.90;;;;;;4937015;29;20032;-73
2022/05/14 06:33:38;;;;;;;3.20;2.08;;;15.60;56.90;;;;;;4921769;29;20036;-74
2022/05/14 06:36:04;;;;;;;3.17;2.35;;;15.70;57.00;;;;;;4938268;29;20035;-73
2022/05/14 06:38:29;;;;;;;2.83;1.90;;;15.70;57.00;;;;;;4921565;29;20034;-73
2022/05/14 06:40:55;;;;;;;3.47;2.03;;;15.60;56.90;;;;;;4921407;29;20449;-74
2022/05/14 06:43:21;;;;;;;3.50;2.20;;;15.70;57.00;;;;;;4935914;29;20062;-74
2022/05/14 06:45:47;;;;;;;2.47;1.90;;;15.70;57.00;;;;;;4920840;29;20028;-74
2022/05/14 06:48:13;;;;;;;3.28;2.20;;;15.70;57.00;;;;;;4904958;29;20130;-74
2022/05/14 06:50:47;;;;;;;2.45;1.95;;;15.70;57.00;;;;;;4921226;29;20048;-74
2022/05/14 06:53:15;;;;;;;2.50;2.00;;;15.70;57.10;;;;;;4936944;29;20036;-74
2022/05/14 06:55:44;;;;;;;3.17;1.90;;;15.70;57.00;;;;;;4936838;29;20076;-73
2022/05/14 06:58:13;;;;;;;3.05;2.00;;;15.70;57.10;;;;;;4936713;29;20484;-74
2022/05/14 07:00:39;;;;;;;3.47;2.10;;;15.70;57.10;;;;;;4936871;29;20123;-74
2022/05/14 07:08:36;;;;;;;3.77;1.97;;;15.80;57.10;;;;;;4938367;29;20111;-74
2022/05/14 07:11:01;;;;;;;2.90;2.00;;;15.80;57.10;;;;;;4937196;29;20073;-75
2022/05/14 07:13:27;;;;;;;2.85;2.20;;;15.80;57.20;;;;;;4936481;29;20450;-75
2022/05/14 07:15:54;;;;;;;3.25;2.05;;;15.80;57.20;;;;;;4936718;29;20076;-74
2022/05/14 07:18:20;;;;;;;3.97;2.30;;;15.90;57.40;;;;;;4937179;29;20023;-76
2022/05/14 07:20:46;;;;;;;3.28;2.22;;;15.90;58.00;;;;;;4920243;29;20448;-74
2022/05/14 07:23:11;;;;;;;3.28;2.08;;;15.90;57.40;;;;;;4936217;29;20036;-75
2022/05/14 07:25:37;;;;;;;3.65;2.38;;;15.90;57.40;;;;;;4920566;29;20140;-75
2022/05/14 07:28:03;;;;;;;3.22;2.20;;;16.00;57.50;;;;;;4952426;29;20167;-75
2022/05/14 07:30:29;;;;;;;3.40;2.20;;;16.00;57.50;;;;;;4935997;29;20378;-75
2022/05/14 07:32:55;;;;;;;2.92;2.42;;;16.00;57.50;;;;;;4920438;29;20043;-75
2022/05/14 07:35:23;;;;;;;5.10;2.60;;;16.00;57.50;;;;;;4937149;29;20106;-75
2022/05/14 07:37:51;;;;;;;4.68;2.58;;;16.00;58.20;;;;;;4921285;29;20508;-75
2022/05/14 07:40:22;;;;;;;5.80;2.92;;;16.00;57.70;;;;;;4922519;29;20032;-75
2022/05/14 07:43:10;;;;;;;3.45;2.45;;;16.10;58.00;;;;;;4940105;29;20028;-75
2022/05/14 07:45:42;;;;;;;6.15;2.97;;;16.10;58.00;;;;;;4938964;29;20487;-74
2022/05/14 07:48:13;;;;;;;3.80;2.60;;;16.20;58.00;;;;;;4936957;29;20036;-74
2022/05/14 07:50:39;;;;;;;3.92;2.55;;;16.20;57.90;;;;;;4938335;29;20086;-74
2022/05/14 07:53:06;;;;;;;5.32;2.78;;;16.20;57.80;;;;;;4936503;29;20445;-74
2022/05/14 07:55:33;;;;;;;4.28;2.70;;;16.30;57.80;;;;;;4920446;29;20083;-74
2022/05/14 07:58:00;;;;;;;3.88;2.58;;;16.30;57.80;;;;;;4937154;29;20084;-75
2022/05/14 08:00:26;;;;;;;4.68;2.38;;;16.40;57.80;;;;;;4952395;29;20051;-75
2022/05/14 08:02:52;;;;;;;4.72;2.45;;;16.40;57.70;;;;;;4936271;29;20024;-74
2022/05/14 08:05:21;;;;;;;3.85;2.53;;;16.50;57.70;;;;;;4937175;29;20035;-74
2022/05/14 08:07:48;;;;;;;3.45;2.53;;;16.50;57.60;;;;;;4922979;29;20484;-75
2022/05/14 08:10:16;;;;;;;4.47;2.75;;;16.70;57.70;;;;;;4950820;29;20034;-74
2022/05/14 08:12:50;;;;;;;3.45;2.38;;;16.70;57.60;;;;;;4944399;29;20031;-75
2022/05/14 08:15:16;;;;;;;6.00;2.97;;;16.80;57.50;;;;;;4937461;29;20512;-74
2022/05/14 08:17:43;;;;;;;4.93;3.13;;;16.90;57.40;;;;;;4921791;29;20460;-75
2022/05/14 08:20:10;;;;;;;5.72;3.00;;;16.90;57.30;;;;;;4938927;29;20032;-75
2022/05/14 08:25:21;;;;;;;4.38;2.80;;;17.10;57.30;;;;;;4938915;29;20134;-75
2022/05/14 08:27:47;;;;;;;5.13;2.67;;;17.20;57.30;;;;;;4921416;29;20060;-75
2022/05/14 08:30:19;;;;;;;4.63;2.83;;;17.20;57.30;;;;;;4922544;29;20095;-76
2022/05/14 08:32:45;;;;;;;3.47;2.60;;;17.30;57.30;;;;;;4953541;29;20031;-75
2022/05/14 08:35:12;;;;;;;4.45;2.63;;;17.40;57.30;;;;;;4937293;29;20023;-75
2022/05/14 08:37:39;;;;;;;5.40;2.97;;;17.50;57.30;;;;;;4958829;29;20038;-75
2022/05/14 08:40:21;;;;;;;3.67;2.42;;;17.60;57.20;;;;;;4939731;29;20468;-76
2022/05/14 08:42:53;;;;;;;3.92;2.45;;;17.60;57.20;;;;;;4937099;29;20031;-76
2022/05/14 08:45:22;;;;;;;4.05;2.65;;;17.80;57.20;;;;;;4920745;29;20034;-75
2022/05/14 08:48:17;;;;;;;3.97;2.30;;;17.80;57.20;;;;;;4937022;29;20055;-75
2022/05/14 08:50:49;;;;;;;4.30;2.60;;;17.90;57.40;;;;;;4936563;29;20059;-75
2022/05/14 08:53:22;;;;;;;3.33;2.30;;;18.00;57.10;;;;;;4952500;29;20032;-75
2022/05/14 08:56:24;;;;;;;4.68;2.60;;;18.10;57.20;;;;;;4922281;29;20043;-75
2022/05/14 08:59:17;;;;;;;3.95;2.65;;;18.20;57.30;;;;;;4921352;29;20154;-75
2022/05/14 09:01:46;;;;;;;4.70;2.80;;;18.30;57.30;;;;;;4938088;29;20039;-75
2022/05/14 09:04:17;;;;;;;6.53;2.92;;;18.40;57.20;;;;;;4937976;29;20048;-75
2022/05/14 09:06:44;;;;;;;4.53;2.60;;;18.50;57.30;;;;;;4940473;29;20038;-74
2022/05/14 09:09:11;;;;;;;3.58;2.22;;;18.60;57.40;;;;;;4942202;29;20457;-75
2022/05/14 09:11:45;;;;;;;4.30;2.50;;;18.70;57.40;;;;;;4940493;29;20067;-76
2022/05/14 09:14:19;;;;;;;4.22;2.53;;;18.80;57.50;;;;;;4941477;29;20035;-75
2022/05/14 09:16:47;;;;;;;3.47;2.20;;;18.90;57.60;;;;;;4924800;29;20067;-76
2022/05/14 09:19:15;;;;;;;3.72;2.28;;;19.10;57.50;;;;;;4940347;29;20111;-75
2022/05/14 09:21:50;;;;;;;3.80;2.17;;;19.10;57.60;;;;;;4923987;29;20042;-75
2022/05/14 09:24:28;;;;;;;4.38;2.42;;;19.30;57.80;;;;;;4955350;29;20027;-76
2022/05/14 09:27:22;;;;;;;4.07;2.30;;;19.30;57.80;;;;;;4955606;29;20055;-76
2022/05/14 09:29:52;;;;;;;3.08;2.03;;;19.40;57.70;;;;;;4925579;29;20107;-76
2022/05/14 09:32:20;;;;;;;2.92;1.90;;;19.60;57.90;;;;;;4956212;29;20032;-75
2022/05/14 09:34:47;;;;;;;3.33;2.13;;;19.70;57.90;;;;;;4940063;29;20083;-75
2022/05/14 09:37:21;;;;;;;4.47;2.20;;;19.80;57.90;;;;;;4939258;29;20051;-76
2022/05/14 09:39:58;;;;;;;6.57;2.38;;;19.90;58.00;;;;;;4944905;29;20028;-76
2022/05/14 09:42:40;;;;;;;2.90;1.88;;;20.00;58.00;;;;;;4931065;29;20103;-77
2022/05/14 09:45:22;;;;;;;4.00;1.98;;;20.10;58.00;;;;;;4940821;29;20035;-76
2022/05/14 09:47:51;;;;;;;2.90;1.90;;;20.30;58.10;;;;;;4955246;29;20119;-76
2022/05/14 09:50:30;;;;;;;3.88;2.00;;;20.40;57.90;;;;;;4940305;29;20024;-75
2022/05/14 09:53:00;;;;;;;2.58;1.90;;;20.50;57.90;;;;;;4940517;29;20523;-75
2022/05/14 09:56:04;;;;;;;4.30;1.92;;;20.60;57.80;;;;;;4939695;29;20035;-76
2022/05/14 09:58:32;;;;;;;3.17;1.60;;;20.70;58.10;;;;;;4940305;29;20028;-75
2022/05/14 10:01:10;;;;;;;2.75;1.92;;;20.80;57.80;;;;;;4940017;29;20102;-75
2022/05/14 10:04:01;;;;;;;5.10;2.00;;;20.90;57.70;;;;;;4955329;29;20095;-75
2022/05/14 10:06:52;;;;;;;2.30;1.70;;;21.00;57.80;;;;;;4923532;29;20482;-76
2022/05/14 10:09:46;;;;;;;3.85;1.70;;;21.20;57.90;;;;;;4922738;29;20042;-75
2022/05/14 10:12:21;;;;;;;2.28;1.65;;;21.30;58.00;;;;;;4937951;29;20035;-76
2022/05/14 10:15:25;;;;;;;4.82;2.05;;;21.40;57.80;;;;;;4922842;29;20035;-76
2022/05/14 10:18:29;;;;;;;3.38;1.77;;;21.50;58.10;;;;;;4939129;29;20068;-76
2022/05/14 10:21:28;;;;;;;3.05;1.88;;;21.70;58.10;;;;;;4939811;29;20496;-77
2022/05/14 10:27:02;;;;;;;2.60;1.60;;;21.90;57.80;;;;;;4938635;29;20075;-76
2022/05/14 10:29:45;;;;;;;2.83;1.75;;;22.10;57.70;;;;;;4939081;29;20150;-78
2022/05/14 10:32:17;;;;;;;2.42;1.50;;;22.20;57.60;;;;;;4923368;29;20039;-76
2022/05/14 10:34:46;;;;;;;2.53;1.42;;;22.30;57.30;;;;;;4939684;29;20032;-76
2022/05/14 10:37:20;;;;;;;2.65;1.65;;;22.40;57.20;;;;;;4938506;29;20030;-77
2022/05/14 10:40:24;;;;;;;5.15;1.65;;;22.50;57.10;;;;;;4940519;29;20032;-77
2022/05/14 10:42:53;;;;;;;2.03;1.52;;;22.60;57.10;;;;;;4938923;29;20047;-77
2022/05/14 10:45:28;;;;;;;3.00;1.63;;;22.70;56.90;;;;;;4939716;29;20031;-76
2022/05/14 10:48:14;;;;;;;;;;;22.80;57.00;;;;;;4939384;29;20035;-77
2022/05/14 10:50:39;;;;;;;2.38;1.40;;;22.90;56.80;;;;;;4919595;29;20359;-76
2022/05/14 10:53:08;;;;;;;1.65;1.27;;;23.00;56.70;;;;;;4939066;29;20028;-77
2022/05/14 10:55:53;;;;;;;2.35;1.50;;;23.10;56.90;;;;;;4921322;29;20069;-79
2022/05/14 10:58:36;;;;;;;2.97;1.50;;;23.10;56.80;;;;;;4921985;29;20039;-76
2022/05/14 11:01:46;;;;;;;2.58;1.48;;;23.30;57.00;;;;;;4924330;29;20444;-77
2022/05/14 11:04:22;;;;;;;2.33;1.42;;;23.40;57.00;;;;;;4919190;29;20040;-77
2022/05/14 11:06:54;;;;;;;2.70;1.65;;;23.50;57.00;;;;;;4953932;29;20457;-77
2022/05/14 11:09:31;;;;;;;4.18;1.63;;;23.60;57.00;;;;;;4939624;29;20031;-76
2022/05/14 11:12:03;;;;;;;2.95;1.70;;;23.60;56.90;;;;;;4939156;29;20067;-76
2022/05/14 11:14:45;;;;;;;3.30;1.60;;;23.80;57.10;;;;;;4953276;29;20032;-77
2022/05/14 11:17:30;;;;;;;5.30;2.00;;;23.80;57.20;;;;;;4938477;29;20031;-77
2022/05/14 11:20:02;;;;;;;2.97;1.75;;;23.90;57.20;;;;;;4953437;29;20452;-76
2022/05/14 11:22:41;;;;;;;3.53;1.38;;;24.00;57.20;;;;;;4921849;29;20573;-76
2022/05/14 11:25:16;;;;;;;2.67;1.42;;;24.00;57.30;;;;;;4953863;29;20051;-77
2022/05/14 11:27:53;;;;;;;2.92;1.63;;;24.10;57.50;;;;;;4938045;29;20054;-76
2022/05/14 11:30:42;;;;;;;3.30;1.80;;;24.20;57.50;;;;;;4939271;29;20039;-76
2022/05/14 11:33:27;;;;;;;2.38;1.50;;;24.20;57.70;;;;;;4940571;29;20043;-76
2022/05/14 11:36:25;;;;;;;2.67;1.75;;;24.30;57.80;;;;;;4911107;29;20042;-76
2022/05/14 11:39:20;;;;;;;4.05;1.70;;;24.30;57.90;;;;;;4924497;29;20064;-76
2022/05/14 11:41:47;;;;;;;2.67;1.50;;;24.40;57.90;;;;;;4929230;29;20511;-76
2022/05/14 11:44:12;;;;;;;4.05;1.77;;;24.40;57.80;;;;;;4920666;29;20464;-77
2022/05/14 11:46:45;;;;;;;3.13;1.58;;;24.50;57.90;;;;;;4920501;29;20032;-77
2022/05/14 11:49:22;;;;;;;2.42;1.65;;;24.50;58.00;;;;;;4938081;29;20035;-77
2022/05/14 11:52:07;;;;;;;3.70;1.80;;;24.60;58.10;;;;;;4921462;29;20058;-77
2022/05/14 11:54:57;;;;;;;4.05;1.90;;;24.60;58.20;;;;;;4921176;29;20039;-76
2022/05/14 11:57:32;;;;;;;2.92;1.50;;;24.70;58.30;;;;;;4938408;29;20036;-78
2022/05/14 12:00:09;;;;;;;3.45;1.58;;;24.70;58.30;;;;;;4936569;29;20039;-77
2022/05/14 12:03:07;;;;;;;2.88;1.35;;;24.70;58.40;;;;;;4936678;29;20102;-76
2022/05/14 12:05:44;;;;;;;3.88;1.50;;;24.80;58.40;;;;;;4927673;29;20134;-77
2022/05/14 12:08:10;;;;;;;2.05;1.45;;;24.80;58.50;;;;;;4952356;29;20027;-76
2022/05/14 12:10:45;;;;;;;3.10;1.67;;;24.90;58.40;;;;;;4948862;29;20045;-77
2022/05/14 12:13:31;;;;;;;3.38;1.55;;;24.90;58.40;;;;;;4937147;29;20035;-75
2022/05/14 12:15:58;;;;;;;2.55;1.45;;;25.00;58.50;;;;;;4936101;29;20027;-76
2022/05/14 12:18:25;;;;;;;3.40;1.83;;;25.00;58.30;;;;;;4937673;29;20023;-76
2022/05/14 12:20:58;;;;;;;3.30;1.80;;;25.00;58.30;;;;;;4936733;29;20122;-77
2022/05/14 12:23:39;;;;;;;3.08;1.65;;;25.00;58.30;;;;;;4935861;29;20035;-77
2022/05/14 12:26:17;;;;;;;3.92;1.77;;;25.10;58.30;;;;;;4935918;29;20058;-76
2022/05/14 12:28:43;;;;;;;4.03;1.70;;;25.10;58.30;;;;;;4936139;29;20040;-77
2022/05/14 12:34:03;;;;;;;3.75;1.88;;;25.20;58.30;;;;;;4935297;29;20046;-77
2022/05/14 12:36:39;;;;;;;3.42;1.60;;;25.20;58.30;;;;;;4935418;29;20035;-77
2022/05/14 12:39:27;;;;;;;2.70;1.65;;;25.20;58.20;;;;;;4935602;29;20031;-76
2022/05/14 12:42:23;;;;;;;2.78;1.50;;;25.30;58.40;;;;;;4935118;29;20039;-75
2022/05/14 12:44:54;;;;;;;3.88;1.77;;;25.30;58.30;;;;;;4916598;29;20062;-77
2022/05/14 12:47:25;;;;;;;3.85;1.67;;;25.40;58.20;;;;;;4936491;29;20039;-77
2022/05/14 12:49:52;;;;;;;3.47;1.85;;;25.30;58.20;;;;;;4919871;29;20045;-77
2022/05/14 12:52:25;;;;;;;3.88;1.73;;;25.40;58.20;;;;;;4919215;29;20032;-77
2022/05/14 12:54:52;;;;;;;3.38;1.80;;;25.40;58.10;;;;;;4936318;29;20039;-76
2022/05/14 12:57:19;;;;;;;3.85;1.65;;;25.50;58.10;;;;;;4935497;29;20028;-76
2022/05/14 12:59:45;;;;;;;4.00;1.73;;;25.50;58.00;;;;;;4934912;29;20035;-76
2022/05/14 13:02:22;;;;;;;4.60;2.05;;;25.50;57.70;;;;;;4919405;29;20039;-77
2022/05/14 13:04:54;;;;;;;3.03;1.70;;;25.60;57.70;;;;;;4936612;29;20095;-77
2022/05/14 13:07:20;;;;;;;1.95;1.50;;;25.60;57.50;;;;;;4920334;29;20088;-77
2022/05/14 13:09:47;;;;;;;3.03;1.70;;;25.60;57.40;;;;;;4919819;29;20036;-76
2022/05/14 13:12:21;;;;;;;3.60;1.63;;;25.70;58.10;;;;;;4936332;29;20047;-77
2022/05/14 13:14:50;;;;;;;3.55;1.80;;;25.70;57.50;;;;;;4919891;29;20453;-76
2022/05/14 13:17:16;;;;;;;3.83;1.65;;;25.70;57.40;;;;;;4919271;29;20550;-76
2022/05/14 13:19:46;;;;;;;3.58;1.77;;;25.70;57.40;;;;;;4919730;29;20036;-76
2022/05/14 13:22:33;;;;;;;4.50;2.10;;;25.70;57.20;;;;;;4935136;29;20396;-75
2022/05/14 13:25:02;;;;;;;3.63;1.60;;;25.70;57.40;;;;;;4936367;29;20103;-76
2022/05/14 13:27:37;;;;;;;3.90;1.73;;;25.80;57.10;;;;;;4920054;29;20123;-76
2022/05/14 13:30:13;;;;;;;3.00;1.65;;;25.80;56.90;;;;;;4919673;29;20459;-77